Rafael Nuñez International Airport
SKCG : rendu visible

Aérodrome :











RETROUVEZ-NOUS SUR...

 
LOGIN :

S'inscrire | Disclaimer

   EN    FR    IT 

 









Légende :    VFR   VFR Marginal   IFR   IFR Intensif   IFR Très Intensif
Visi : 
Plafond : 
>= 8 km
>= 3000ft
5 à 8 km
1000 à 3000 ft
1500m à 5 km
500 à 1000 ft
800 à 1500m
200 à 500 ft
< 800m
< 200 ft
Symboles :   Orages  Brouillard  Fortes neiges  Fortes précipitations  Vent > 20 kt






- Altitude de l'aérodrome : 4 ft
- Code IATA : CTG


SKCG - Rafael Nuñez International

DERNIER METAR :
  • 031900Z 35006KT 8000 VCSH SCT013CB BKN200 28/27 Q1009 A2980 RETSRA RMK CB VCSH/S

METARs EXPIRÉS :
  • 031800Z 32008KT 250V340 9999 3000N TSRA SCT013CB BKN070 30/27 Q1009 A2982 RMK CB/N/E
  • 031700Z 27010KT 230V300 9999 FEW012TCU SCT015 31/27 Q1010 RMK TCU/N/S A2984
  • 031600Z 19007KT 9999 SCT015TCU 31/26 Q1011 RMK TCU/N/E A2986

TAF TAF SKCG
Valide du 03 à 18h jusqu'au 04 à 18h UTC


031630Z 0318/0418 26009KT 9999 FEW017
TEMPO 0318/0320 DZ SCT015CB
BECMG 0402/0404 VRB02KT
PROB40
TEMPO 0410/0412 5000 BCFG SCT010
BECMG 0214/0216 29012KT TX32/0318Z TN25/0410Z
FIR SKEC / Amérique du Sud



MET'MAP, la Météo Aéronautique d'un coup d'oeil ! - Copyright ORBIFLY Décembre 2007 - Disclaimer

ORBIFLY MET'MAP TEAM :

Programmation & Développement : Alexandra Zaïnal
Sur une idée originale de : Baudouin d'Aumeries
Assistance à la programmation : Marc-Olivier Méhu
Soutien technique & logistique : Manuel Goepfert

Contact : metmap@orbifly.com




SOURCES & CREDITS :

   NOAA       Earth
Advisory